Airport View

Enter ICAO identifier to see the current METAR for that AWOS.

KFNL for example

KGGW 240153Z AUTO 11016KT 10SM SCT075 31/16 A2989 RMK AO2 SLP106 T03110161

24 Jul 2014 02:07

Frequency: 135.175

Phone: 406-228-8294

Other Area AWOS: KOLF - KJDN - KPO1 - CWKO

TAF KGGW 232320Z 2400/2424 11018G27KT P6SM SCT160 FM240200 11015G25KT P6SM VCTS SCT100CB FM241200 10010KT P6SM FEW200 FM241800 31010KT P6SM SCT220